Time;durP1;ratioP1;P1;durP2;ratioP2;P2;SDS_P1;SDS_P2;PMS_P1;PMS_P2;Temp;Humidity;BMP_temperature;BMP_pressure;BME280_temperature;BME280_humidity;BME280_pressure;Samples;Min_cycle;Max_cycle;Signal;HPM_P1;HPM_P2
2022/05/10 00:00:12;;;;;;;24.85;23.05;;;12.80;99.90;;;;;;5043345;28;20081;-76
2022/05/10 00:02:44;;;;;;;25.20;23.25;;;13.00;99.90;;;;;;5025983;28;20068;-75
2022/05/10 00:05:11;;;;;;;25.48;23.58;;;13.00;99.90;;;;;;5041471;28;20053;-75
2022/05/10 00:07:38;;;;;;;25.55;23.50;;;13.00;99.90;;;;;;5025776;28;20126;-74
2022/05/10 00:10:09;;;;;;;25.40;23.48;;;13.00;99.90;;;;;;5032086;28;20122;-75
2022/05/10 00:12:38;;;;;;;26.42;23.63;;;13.00;99.90;;;;;;5044953;28;20056;-75
2022/05/10 00:15:06;;;;;;;25.98;23.88;;;13.00;99.90;;;;;;5054068;28;20136;-74
2022/05/10 00:17:38;;;;;;;25.95;23.85;;;13.00;99.90;;;;;;5034194;28;20053;-75
2022/05/10 00:20:10;;;;;;;26.40;24.20;;;13.20;99.90;;;;;;5024486;28;20499;-74
2022/05/10 00:22:38;;;;;;;26.52;24.60;;;13.30;99.90;;;;;;5041246;28;20069;-75
2022/05/10 00:25:07;;;;;;;25.63;23.92;;;13.10;99.90;;;;;;5024672;28;20265;-76
2022/05/10 00:27:34;;;;;;;26.45;24.27;;;13.10;99.90;;;;;;5007583;28;20459;-75
2022/05/10 00:30:01;;;;;;;26.75;24.33;;;13.00;99.90;;;;;;5023424;28;20049;-75
2022/05/10 00:32:31;;;;;;;27.30;24.50;;;13.10;99.90;;;;;;5042281;28;20048;-73
2022/05/10 00:35:07;;;;;;;24.90;23.13;;;13.20;99.90;;;;;;5042930;28;20521;-75
2022/05/10 00:37:33;;;;;;;25.83;23.88;;;13.20;99.90;;;;;;5037220;28;20099;-75
2022/05/10 00:40:00;;;;;;;26.60;24.50;;;13.10;99.90;;;;;;5042372;28;20053;-74
2022/05/10 00:42:36;;;;;;;27.65;25.52;;;13.10;99.90;;;;;;5047952;28;20482;-73
2022/05/10 00:45:05;;;;;;;27.17;25.13;;;13.10;99.90;;;;;;5037077;28;20060;-74
2022/05/10 00:47:41;;;;;;;26.73;24.55;;;13.00;99.90;;;;;;5024374;28;20045;-74
2022/05/10 00:50:23;;;;;;;26.00;23.95;;;13.00;99.90;;;;;;5042316;28;20080;-76
2022/05/10 00:52:56;;;;;;;27.27;24.70;;;12.80;99.90;;;;;;5021609;28;20057;-75
2022/05/10 00:55:44;;;;;;;26.65;24.55;;;12.80;99.90;;;;;;5022561;28;20045;-74
2022/05/10 00:58:51;;;;;;;26.23;24.27;;;12.70;99.90;;;;;;5020766;28;20152;-76
2022/05/10 01:01:26;;;;;;;26.88;24.73;;;12.50;99.90;;;;;;5036827;28;20479;-75
2022/05/10 01:04:01;;;;;;;26.23;24.13;;;12.50;99.90;;;;;;5021656;28;20056;-75
2022/05/10 01:06:35;;;;;;;25.75;23.80;;;12.40;99.90;;;;;;5003967;28;20052;-75
2022/05/10 01:09:22;;;;;;;26.30;23.63;;;12.40;99.90;;;;;;5013196;28;20044;-75
2022/05/10 01:12:02;;;;;;;26.63;24.65;;;12.30;99.90;;;;;;5048285;28;20061;-76
2022/05/10 01:14:35;;;;;;;26.08;23.95;;;12.30;99.90;;;;;;5031093;28;20546;-76
2022/05/10 01:17:02;;;;;;;26.65;24.45;;;12.30;99.90;;;;;;5040278;28;20479;-75
2022/05/10 01:19:29;;;;;;;25.75;23.83;;;12.30;99.90;;;;;;5038662;28;20073;-75
2022/05/10 01:22:26;;;;;;;27.48;25.27;;;12.30;99.90;;;;;;5037730;28;20255;-74
2022/05/10 01:25:05;;;;;;;26.15;24.05;;;12.30;99.90;;;;;;5041335;28;20085;-76
2022/05/10 01:28:10;;;;;;;25.50;23.50;;;12.30;99.90;;;;;;5022924;28;20564;-74
2022/05/10 01:30:37;;;;;;;26.60;24.10;;;12.20;99.90;;;;;;5025468;28;20104;-75
2022/05/10 01:33:30;;;;;;;26.02;24.15;;;12.20;99.90;;;;;;5003926;28;20084;-74
2022/05/10 01:38:45;;;;;;;25.35;23.35;;;12.20;99.90;;;;;;5057513;27;20374;-76
2022/05/10 01:41:18;;;;;;;26.02;23.85;;;12.30;99.90;;;;;;5055389;28;20399;-76
2022/05/10 01:43:59;;;;;;;25.48;23.52;;;12.20;99.90;;;;;;5063229;28;20113;-76
2022/05/10 01:46:30;;;;;;;24.70;22.80;;;12.10;99.90;;;;;;5058072;28;20134;-77
2022/05/10 01:49:08;;;;;;;26.38;24.23;;;11.90;99.90;;;;;;5059680;28;20223;-76
2022/05/10 01:52:00;;;;;;;26.23;24.10;;;11.80;99.90;;;;;;5068795;28;20060;-76
2022/05/10 01:54:38;;;;;;;26.42;24.13;;;11.70;99.90;;;;;;5040719;28;20136;-76
2022/05/10 01:57:11;;;;;;;27.35;25.10;;;11.70;99.90;;;;;;5058587;28;20075;-76
2022/05/10 01:59:40;;;;;;;26.27;24.08;;;11.60;99.90;;;;;;5060187;28;20135;-76
2022/05/10 02:02:10;;;;;;;25.73;23.67;;;11.70;99.90;;;;;;5057586;28;20488;-77
2022/05/10 02:04:41;;;;;;;27.35;25.23;;;11.70;99.90;;;;;;5058090;28;20499;-77
2022/05/10 02:07:21;;;;;;;26.30;24.10;;;11.70;99.90;;;;;;5055913;28;20148;-74
2022/05/10 02:10:20;;;;;;;26.98;24.67;;;11.70;99.90;;;;;;4967219;28;20051;-76
2022/05/10 02:12:59;;;;;;;26.50;24.58;;;11.70;99.90;;;;;;4986222;28;20039;-76
2022/05/10 02:15:33;;;;;;;27.20;25.13;;;11.90;99.90;;;;;;4987378;28;20066;-76
2022/05/10 02:18:08;;;;;;;27.38;25.05;;;11.90;99.90;;;;;;4978533;28;20113;-75
2022/05/10 02:21:13;;;;;;;26.05;23.85;;;12.10;99.90;;;;;;4985878;28;20122;-75
2022/05/10 02:23:45;;;;;;;27.23;25.15;;;12.30;99.90;;;;;;4972583;28;20504;-76
2022/05/10 02:26:20;;;;;;;27.52;25.08;;;12.20;99.90;;;;;;4960724;28;20149;-75
2022/05/10 02:29:04;;;;;;;27.48;25.15;;;12.20;99.90;;;;;;4962876;28;20049;-75
2022/05/10 02:34:35;;;;;;;25.80;23.77;;;12.10;99.90;;;;;;4960618;28;20055;-76
2022/05/10 02:37:02;;;;;;;26.35;24.50;;;12.20;99.90;;;;;;4961415;28;20436;-75
2022/05/10 02:39:29;;;;;;;25.90;23.92;;;12.30;99.90;;;;;;4966504;28;20054;-76
2022/05/10 02:41:57;;;;;;;26.08;24.13;;;12.30;99.90;;;;;;4986763;28;20046;-75
2022/05/10 02:44:24;;;;;;;25.77;23.88;;;12.20;99.90;;;;;;4965242;28;20510;-75
2022/05/10 02:46:51;;;;;;;26.88;24.25;;;12.10;99.90;;;;;;4979799;28;20455;-75
2022/05/10 02:49:18;;;;;;;26.67;24.48;;;12.00;99.90;;;;;;4975511;28;20085;-75
2022/05/10 02:51:44;;;;;;;26.27;24.23;;;12.10;99.90;;;;;;4979641;28;20624;-76
2022/05/10 02:54:11;;;;;;;25.10;23.15;;;12.10;99.90;;;;;;4949585;28;20216;-75
2022/05/10 02:56:38;;;;;;;24.83;22.95;;;12.20;99.90;;;;;;4967060;28;20058;-75
2022/05/10 02:59:11;;;;;;;25.55;23.48;;;12.30;99.90;;;;;;4965607;28;20157;-75
2022/05/10 03:02:00;;;;;;;26.73;24.23;;;12.30;99.90;;;;;;4965482;28;20716;-76
2022/05/10 03:04:36;;;;;;;25.80;23.58;;;12.30;99.90;;;;;;4942002;29;20073;-75
2022/05/10 03:07:05;;;;;;;26.92;24.52;;;12.30;99.90;;;;;;4946113;28;20515;-75
2022/05/10 03:09:32;;;;;;;27.27;24.80;;;12.20;99.90;;;;;;4952374;28;20062;-77
2022/05/10 03:12:01;;;;;;;25.95;24.05;;;12.30;99.90;;;;;;4970673;28;20129;-75
2022/05/10 03:14:28;;;;;;;27.50;25.20;;;12.20;99.90;;;;;;4966546;28;20460;-75
2022/05/10 03:16:55;;;;;;;26.75;24.58;;;12.20;99.90;;;;;;4967888;28;20051;-75
2022/05/10 03:19:22;;;;;;;27.23;25.00;;;12.10;99.90;;;;;;4951755;28;20089;-75
2022/05/10 03:21:48;;;;;;;27.25;24.90;;;12.10;99.90;;;;;;4957898;28;20415;-76
2022/05/10 03:24:15;;;;;;;27.38;25.20;;;11.90;99.90;;;;;;4950190;28;20042;-75
2022/05/10 03:26:51;;;;;;;27.75;25.50;;;12.00;99.90;;;;;;4948251;28;20455;-75
2022/05/10 03:29:19;;;;;;;26.88;24.80;;;12.00;99.90;;;;;;4950457;28;20109;-75
2022/05/10 03:31:47;;;;;;;27.25;24.90;;;11.90;99.90;;;;;;4965341;28;20035;-75
2022/05/10 03:37:03;;;;;;;26.02;23.92;;;11.90;99.90;;;;;;4967066;28;20113;-75
2022/05/10 03:39:30;;;;;;;27.90;25.58;;;11.90;99.90;;;;;;4962716;28;20062;-76
2022/05/10 03:41:57;;;;;;;27.23;25.05;;;11.90;99.90;;;;;;4968389;28;20046;-75
2022/05/10 03:44:24;;;;;;;26.13;23.70;;;11.90;99.90;;;;;;4964234;28;20051;-76
2022/05/10 03:46:52;;;;;;;25.38;23.50;;;12.00;99.90;;;;;;4964938;28;20051;-76
2022/05/10 03:49:19;;;;;;;29.23;26.83;;;12.00;99.90;;;;;;4969995;28;20050;-76
2022/05/10 03:51:46;;;;;;;26.08;23.83;;;12.10;99.90;;;;;;4954309;28;20777;-76
2022/05/10 03:54:13;;;;;;;25.15;23.20;;;12.10;99.90;;;;;;4973179;28;20043;-76
2022/05/10 03:56:40;;;;;;;24.67;22.48;;;12.10;99.90;;;;;;4968899;28;20050;-76
2022/05/10 03:59:07;;;;;;;25.23;22.83;;;12.10;99.90;;;;;;4964747;28;20492;-76
2022/05/10 04:01:33;;;;;;;25.85;23.95;;;12.10;99.90;;;;;;4966070;28;20756;-76
2022/05/10 04:04:01;;;;;;;27.00;24.70;;;12.10;99.90;;;;;;4967544;28;20055;-74
2022/05/10 04:06:29;;;;;;;27.17;24.90;;;12.00;99.90;;;;;;4965803;28;20420;-75
2022/05/10 04:08:56;;;;;;;26.25;24.10;;;11.90;99.90;;;;;;4968596;28;20161;-76
2022/05/10 04:11:23;;;;;;;25.83;23.77;;;12.00;99.90;;;;;;4973781;28;20043;-76
2022/05/10 04:13:51;;;;;;;27.20;25.27;;;12.00;99.90;;;;;;4967766;28;20056;-76
2022/05/10 04:16:18;;;;;;;28.30;25.83;;;12.00;99.90;;;;;;4966756;28;20071;-76
2022/05/10 04:18:48;;;;;;;27.50;25.27;;;12.10;99.90;;;;;;4965548;28;20119;-76
2022/05/10 04:21:15;;;;;;;27.25;25.05;;;12.10;99.90;;;;;;4973508;28;20069;-75
2022/05/10 04:23:42;;;;;;;28.98;26.65;;;12.10;99.90;;;;;;4962742;28;20043;-75
2022/05/10 04:26:12;;;;;;;28.17;26.08;;;12.10;99.90;;;;;;4944369;28;20058;-75
2022/05/10 04:28:40;;;;;;;26.55;24.52;;;12.10;99.90;;;;;;4942034;28;20062;-76
2022/05/10 04:31:07;;;;;;;27.98;25.55;;;12.20;99.90;;;;;;4948792;28;20695;-75
2022/05/10 04:33:34;;;;;;;29.67;27.05;;;12.20;99.90;;;;;;4963389;28;20146;-75
2022/05/10 04:36:01;;;;;;;27.75;25.70;;;12.40;99.90;;;;;;4963339;28;20055;-76
2022/05/10 04:38:27;;;;;;;28.50;26.13;;;12.20;99.90;;;;;;4965231;28;20051;-76
2022/05/10 04:43:41;;;;;;;28.40;26.38;;;12.40;99.90;;;;;;4966292;28;20099;-76
2022/05/10 04:46:09;;;;;;;27.83;25.50;;;12.60;99.90;;;;;;4951623;28;20519;-76
2022/05/10 04:48:36;;;;;;;29.13;26.75;;;12.60;99.90;;;;;;4964259;28;20134;-75
2022/05/10 04:51:04;;;;;;;29.25;26.52;;;12.70;99.90;;;;;;4978268;28;20074;-76
2022/05/10 04:53:31;;;;;;;27.83;25.83;;;12.60;99.90;;;;;;4971671;28;20527;-75
2022/05/10 04:55:58;;;;;;;28.27;26.00;;;12.70;99.90;;;;;;4964106;28;20050;-75
2022/05/10 04:58:24;;;;;;;27.75;25.83;;;12.80;99.90;;;;;;4966237;28;20657;-76
2022/05/10 05:00:54;;;;;;;26.90;24.95;;;12.90;99.90;;;;;;4948351;28;20042;-77
2022/05/10 05:03:20;;;;;;;27.42;25.02;;;12.90;99.90;;;;;;4947573;28;20070;-74
2022/05/10 05:05:47;;;;;;;26.50;24.55;;;12.80;99.90;;;;;;4947411;28;20043;-74
2022/05/10 05:08:14;;;;;;;28.40;25.42;;;12.90;99.90;;;;;;4949046;28;20054;-74
2022/05/10 05:10:40;;;;;;;26.98;24.58;;;12.90;99.90;;;;;;4958863;28;20116;-74
2022/05/10 05:13:07;;;;;;;26.90;25.00;;;13.10;99.90;;;;;;4966893;28;20042;-73
2022/05/10 05:15:34;;;;;;;27.73;25.83;;;13.10;99.90;;;;;;4953037;28;20050;-74
2022/05/10 05:18:03;;;;;;;27.80;25.77;;;13.40;99.90;;;;;;4964744;28;20078;-74
2022/05/10 05:20:32;;;;;;;27.98;25.85;;;13.50;99.90;;;;;;4973355;28;20080;-74
2022/05/10 05:22:58;;;;;;;27.90;25.67;;;13.60;99.90;;;;;;4969233;28;20085;-74
2022/05/10 05:25:26;;;;;;;27.13;25.10;;;13.70;99.90;;;;;;4963638;28;20532;-73
2022/05/10 05:27:52;;;;;;;28.33;26.27;;;14.00;99.90;;;;;;4963911;28;20117;-74
2022/05/10 05:30:19;;;;;;;28.98;26.67;;;14.30;99.90;;;;;;4947955;28;20198;-73
2022/05/10 05:32:46;;;;;;;29.95;27.77;;;14.50;99.90;;;;;;4964563;28;20054;-74
2022/05/10 05:35:13;;;;;;;29.90;27.73;;;14.40;99.90;;;;;;4947631;28;20508;-73
2022/05/10 05:37:40;;;;;;;29.10;26.77;;;14.50;99.90;;;;;;4948816;28;20101;-74
2022/05/10 05:40:09;;;;;;;30.05;27.77;;;14.70;99.90;;;;;;4954790;28;20093;-74
2022/05/10 05:42:43;;;;;;;29.20;26.90;;;14.90;99.90;;;;;;4952050;28;20051;-74
2022/05/10 05:45:12;;;;;;;29.63;27.52;;;15.00;99.90;;;;;;4952416;28;20178;-74
2022/05/10 05:47:40;;;;;;;29.35;27.35;;;15.30;99.90;;;;;;4963917;28;20058;-74
2022/05/10 05:50:09;;;;;;;29.40;27.38;;;15.40;99.90;;;;;;4970467;28;20231;-74
2022/05/10 05:52:37;;;;;;;29.38;27.17;;;15.50;99.90;;;;;;4978445;28;20128;-74
2022/05/10 05:55:05;;;;;;;31.05;28.80;;;15.70;99.90;;;;;;4984902;28;20655;-74
2022/05/10 05:57:33;;;;;;;29.63;27.63;;;15.90;99.90;;;;;;4986253;28;20054;-73
2022/05/10 06:00:01;;;;;;;30.52;28.13;;;16.10;99.90;;;;;;4985253;28;20050;-73
2022/05/10 06:02:38;;;;;;;29.27;26.98;;;16.20;99.90;;;;;;4986816;28;20077;-73
2022/05/10 06:05:06;;;;;;;29.08;27.08;;;16.40;99.90;;;;;;4985487;28;20133;-73
2022/05/10 06:07:34;;;;;;;29.27;27.23;;;16.50;99.90;;;;;;4985395;28;20477;-73
2022/05/10 06:10:01;;;;;;;31.02;28.85;;;16.60;99.90;;;;;;4963170;28;20053;-73
2022/05/10 06:12:27;;;;;;;30.20;28.10;;;16.70;99.90;;;;;;4951514;28;20035;-73
2022/05/10 06:14:55;;;;;;;30.13;28.20;;;16.90;99.90;;;;;;4965465;28;20047;-73
2022/05/10 06:17:23;;;;;;;29.50;27.60;;;17.10;99.90;;;;;;4963449;28;20634;-73
2022/05/10 06:19:51;;;;;;;30.23;28.33;;;17.30;99.90;;;;;;4968980;28;20050;-74
2022/05/10 06:22:18;;;;;;;30.25;28.35;;;17.60;99.90;;;;;;4970416;28;20105;-74
2022/05/10 06:24:45;;;;;;;30.20;28.20;;;17.70;99.90;;;;;;4953648;28;20074;-74
2022/05/10 06:27:16;;;;;;;31.77;29.58;;;18.00;99.90;;;;;;4948112;28;20113;-74
2022/05/10 06:29:43;;;;;;;29.55;27.75;;;18.30;99.90;;;;;;4932227;29;20110;-74
2022/05/10 06:32:11;;;;;;;29.42;27.58;;;18.60;99.90;;;;;;4947395;28;20098;-74
2022/05/10 06:34:40;;;;;;;30.23;28.30;;;18.60;99.90;;;;;;4950519;28;20062;-74
2022/05/10 06:38:16;;;;;;;30.05;27.90;;;18.80;99.90;;;;;;4965248;28;20055;-74
2022/05/10 06:39:53;;;;;;;29.75;27.77;;;18.90;99.90;;;;;;4959889;28;20108;-74
2022/05/10 06:42:24;;;;;;;28.27;26.55;;;19.30;99.90;;;;;;4958480;28;20051;-74
2022/05/10 06:44:51;;;;;;;29.75;27.77;;;19.70;99.90;;;;;;4967353;28;20062;-75
2022/05/10 06:47:18;;;;;;;28.88;26.90;;;19.70;99.90;;;;;;4965981;28;20051;-74
2022/05/10 06:49:45;;;;;;;29.17;27.20;;;20.10;99.90;;;;;;4972468;28;20050;-74
2022/05/10 06:52:17;;;;;;;28.88;26.98;;;20.40;99.90;;;;;;4963422;28;20427;-74
2022/05/10 06:54:44;;;;;;;31.45;29.42;;;20.90;99.90;;;;;;4985885;28;20488;-74
2022/05/10 06:57:11;;;;;;;33.33;31.08;;;21.40;99.90;;;;;;4965689;28;20035;-74
2022/05/10 06:59:38;;;;;;;33.63;31.13;;;21.60;99.90;;;;;;4967095;28;20206;-74
2022/05/10 07:02:05;;;;;;;32.97;30.52;;;21.90;99.90;;;;;;4965492;28;20047;-74
2022/05/10 07:04:32;;;;;;;32.35;30.25;;;22.10;99.90;;;;;;4948450;28;20510;-74
2022/05/10 07:07:00;;;;;;;33.78;31.67;;;22.20;99.90;;;;;;4964847;28;20460;-75
2022/05/10 07:09:26;;;;;;;35.33;32.75;;;22.20;99.90;;;;;;4960114;28;20058;-74
2022/05/10 07:11:58;;;;;;;36.00;33.45;;;22.10;99.90;;;;;;4952849;28;20307;-74
2022/05/10 07:14:26;;;;;;;34.60;32.30;;;21.70;99.90;;;;;;4966427;28;20094;-74
2022/05/10 07:16:52;;;;;;;35.42;32.83;;;21.40;99.90;;;;;;4966554;28;20050;-75
2022/05/10 07:19:19;;;;;;;34.97;32.47;;;21.20;99.90;;;;;;4970987;28;20046;-74
2022/05/10 07:21:49;;;;;;;36.42;33.78;;;20.90;99.90;;;;;;4976888;28;20485;-74
2022/05/10 07:24:19;;;;;;;38.55;35.30;;;20.60;99.90;;;;;;4957604;28;20066;-74
2022/05/10 07:26:46;;;;;;;37.00;34.03;;;20.60;99.90;;;;;;4961025;28;20054;-74
2022/05/10 07:29:15;;;;;;;37.50;33.95;;;20.70;99.90;;;;;;4966596;28;20065;-75
2022/05/10 07:31:42;;;;;;;38.30;35.33;;;20.80;99.90;;;;;;4948339;28;20512;-74
2022/05/10 07:34:10;;;;;;;37.63;34.67;;;20.70;99.90;;;;;;4948671;28;20058;-74
2022/05/10 07:36:37;;;;;;;35.60;33.38;;;20.90;99.90;;;;;;4966108;28;20493;-74
2022/05/10 07:39:06;;;;;;;35.45;32.95;;;21.00;99.90;;;;;;4968573;28;20077;-74
2022/05/10 07:41:33;;;;;;;35.65;32.85;;;21.20;99.90;;;;;;4974976;28;20407;-74
2022/05/10 07:44:00;;;;;;;36.03;33.50;;;21.40;99.90;;;;;;4969625;28;20073;-75
2022/05/10 07:46:27;;;;;;;33.53;30.77;;;21.60;99.90;;;;;;4964634;28;20070;-74
2022/05/10 07:48:54;;;;;;;35.80;33.08;;;21.80;99.90;;;;;;4952217;28;20500;-75
2022/05/10 07:51:21;;;;;;;34.78;32.35;;;21.90;99.90;;;;;;4974568;28;20062;-75
2022/05/10 07:53:48;;;;;;;37.40;34.15;;;22.00;99.90;;;;;;4967198;28;20271;-74
2022/05/10 07:56:15;;;;;;;33.55;31.05;;;22.00;99.90;;;;;;4966504;28;20482;-77
2022/05/10 07:58:53;;;;;;;34.45;32.05;;;22.00;99.90;;;;;;4966885;28;20047;-74
2022/05/10 08:01:19;;;;;;;35.13;32.45;;;22.10;99.90;;;;;;4965721;28;20046;-74
2022/05/10 08:03:47;;;;;;;34.55;32.15;;;22.20;99.90;;;;;;4966442;28;20082;-75
2022/05/10 08:06:16;;;;;;;34.42;32.05;;;22.30;99.90;;;;;;4965908;28;20444;-74
2022/05/10 08:08:42;;;;;;;34.75;32.38;;;22.40;99.90;;;;;;4946928;28;20083;-75
2022/05/10 08:11:09;;;;;;;34.40;31.90;;;22.40;99.90;;;;;;4955131;28;20754;-74
2022/05/10 08:13:37;;;;;;;34.88;32.63;;;22.50;99.90;;;;;;4971133;28;20290;-75
2022/05/10 08:16:04;;;;;;;34.10;32.03;;;22.50;99.90;;;;;;4963857;28;20093;-75
2022/05/10 08:18:31;;;;;;;32.03;30.08;;;22.60;99.90;;;;;;4962768;28;20047;-75
2022/05/10 08:20:59;;;;;;;33.03;30.83;;;22.60;99.90;;;;;;4953429;28;20043;-75
2022/05/10 08:23:28;;;;;;;35.65;33.15;;;22.40;99.90;;;;;;4945936;28;20050;-75
2022/05/10 08:25:57;;;;;;;35.67;33.35;;;22.30;99.90;;;;;;4961809;28;20050;-75
2022/05/10 08:28:26;;;;;;;34.55;32.05;;;22.60;99.90;;;;;;4962693;28;20390;-74
2022/05/10 08:30:53;;;;;;;34.80;32.53;;;22.90;99.90;;;;;;4946468;28;20106;-75
2022/05/10 08:33:26;;;;;;;34.30;32.00;;;23.10;99.90;;;;;;4963231;28;20086;-75
2022/05/10 08:35:55;;;;;;;33.47;31.38;;;23.30;99.90;;;;;;4946395;28;20065;-75
2022/05/10 08:38:24;;;;;;;34.08;32.08;;;23.60;99.90;;;;;;4966537;28;20151;-75
2022/05/10 08:41:19;;;;;;;33.75;31.63;;;23.90;99.90;;;;;;4972933;28;20550;-75
2022/05/10 08:44:15;;;;;;;34.83;32.78;;;24.10;99.90;;;;;;4948418;28;20459;-74
2022/05/10 08:46:52;;;;;;;34.17;32.08;;;24.40;99.90;;;;;;4943466;28;20043;-75
2022/05/10 08:49:23;;;;;;;33.25;30.98;;;24.70;99.90;;;;;;4948525;28;20050;-75
2022/05/10 08:51:53;;;;;;;34.13;32.13;;;24.70;99.90;;;;;;4974074;28;20133;-74
2022/05/10 08:54:22;;;;;;;34.33;32.13;;;24.60;99.90;;;;;;4965587;28;20413;-74
2022/05/10 08:56:54;;;;;;;34.17;31.92;;;24.50;99.90;;;;;;4963899;28;20047;-75
2022/05/10 08:59:24;;;;;;;33.20;31.02;;;24.60;99.90;;;;;;4964396;28;20794;-74
2022/05/10 09:02:04;;;;;;;34.47;32.30;;;24.90;99.90;;;;;;4946565;28;20046;-75
2022/05/10 09:04:42;;;;;;;33.53;31.42;;;25.10;99.90;;;;;;4963726;28;20050;-74
2022/05/10 09:07:28;;;;;;;31.95;30.02;;;25.10;99.90;;;;;;4965141;28;20700;-74
2022/05/10 09:10:17;;;;;;;34.92;32.88;;;25.40;99.90;;;;;;4966863;28;20058;-74
2022/05/10 09:13:05;;;;;;;34.95;32.97;;;25.70;99.90;;;;;;4966260;28;20072;-74
2022/05/10 09:15:36;;;;;;;34.10;32.20;;;25.90;99.90;;;;;;4953374;28;20121;-74
2022/05/10 09:18:18;;;;;;;37.35;35.25;;;26.00;99.90;;;;;;4947528;28;20055;-74
2022/05/10 09:20:58;;;;;;;34.67;32.67;;;26.10;99.90;;;;;;4972112;28;20046;-75
2022/05/10 09:23:30;;;;;;;36.45;34.30;;;25.80;99.90;;;;;;4964310;28;20064;-75
2022/05/10 09:25:57;;;;;;;36.53;34.42;;;25.60;99.90;;;;;;4982788;28;20120;-74
2022/05/10 09:28:33;;;;;;;34.13;32.00;;;25.80;99.90;;;;;;4983352;28;20054;-74
2022/05/10 09:34:49;;;;;;;34.90;32.83;;;25.60;99.90;;;;;;4963323;28;20130;-75
2022/05/10 09:37:27;;;;;;;35.30;33.33;;;25.50;99.90;;;;;;4947899;28;20043;-74
2022/05/10 09:39:57;;;;;;;35.13;33.03;;;25.50;99.90;;;;;;4968469;28;20046;-75
2022/05/10 09:42:43;;;;;;;35.72;33.53;;;25.60;99.90;;;;;;4967594;28;20043;-75
2022/05/10 09:45:26;;;;;;;34.33;32.25;;;25.80;99.90;;;;;;4959591;28;20089;-75
2022/05/10 09:47:55;;;;;;;33.72;31.58;;;25.90;99.90;;;;;;4964444;28;20655;-74
2022/05/10 09:50:31;;;;;;;34.17;32.03;;;25.20;99.90;;;;;;4968563;28;20112;-75
2022/05/10 09:53:09;;;;;;;33.90;31.80;;;24.80;99.90;;;;;;4950544;28;20479;-75
2022/05/10 09:55:36;;;;;;;33.85;31.85;;;24.50;99.90;;;;;;4946931;28;20099;-75
2022/05/10 09:58:26;;;;;;;34.17;32.28;;;24.50;99.90;;;;;;4962853;28;20113;-76
2022/05/10 10:00:54;;;;;;;34.55;32.47;;;24.30;99.90;;;;;;4966878;28;20050;-76
2022/05/10 10:03:32;;;;;;;34.42;32.25;;;24.50;99.90;;;;;;4941730;28;20502;-76
2022/05/10 10:06:21;;;;;;;34.40;32.53;;;24.60;99.90;;;;;;4967912;28;20035;-75
2022/05/10 10:08:54;;;;;;;35.17;33.20;;;24.70;99.90;;;;;;4971341;28;20057;-75
2022/05/10 10:11:28;;;;;;;32.88;30.88;;;24.70;99.90;;;;;;4976190;28;20050;-76
2022/05/10 10:14:00;;;;;;;33.53;31.47;;;24.70;99.90;;;;;;4966246;28;20054;-75
2022/05/10 10:16:53;;;;;;;33.55;31.55;;;24.80;99.90;;;;;;4966635;28;20055;-75
2022/05/10 10:19:32;;;;;;;34.38;32.03;;;24.70;99.90;;;;;;4952979;28;20045;-76
2022/05/10 10:22:12;;;;;;;31.85;29.85;;;24.70;99.90;;;;;;4973172;28;20051;-75
2022/05/10 10:25:03;;;;;;;34.30;32.33;;;24.60;99.90;;;;;;4966973;28;20051;-75
2022/05/10 10:27:45;;;;;;;32.35;30.55;;;24.40;99.90;;;;;;4967961;28;20792;-75
2022/05/10 10:30:29;;;;;;;34.33;32.15;;;24.40;99.90;;;;;;4967866;28;20479;-75
2022/05/10 10:33:06;;;;;;;34.67;32.83;;;24.50;99.90;;;;;;4950862;28;20497;-74
2022/05/10 10:35:49;;;;;;;32.45;30.65;;;24.30;99.90;;;;;;4965091;28;20054;-75
2022/05/10 10:38:50;;;;;;;35.03;32.83;;;23.90;99.90;;;;;;4964529;28;20054;-75
2022/05/10 10:41:38;;;;;;;36.10;33.95;;;24.00;99.90;;;;;;4954630;28;20420;-75
2022/05/10 10:44:27;;;;;;;32.30;30.40;;;24.20;99.90;;;;;;4967402;28;20169;-74
2022/05/10 10:47:00;;;;;;;37.28;35.38;;;24.30;99.90;;;;;;4947468;28;20059;-74
2022/05/10 10:49:41;;;;;;;36.08;33.67;;;24.00;99.90;;;;;;4946799;29;20132;-75
2022/05/10 10:52:08;;;;;;;35.80;33.72;;;23.90;99.90;;;;;;4959972;28;20043;-76
2022/05/10 10:54:35;;;;;;;36.70;34.55;;;23.90;99.90;;;;;;4966293;28;20084;-75
2022/05/10 10:57:46;;;;;;;35.08;32.97;;;23.90;99.90;;;;;;4966186;28;20101;-75
2022/05/10 11:00:24;;;;;;;35.03;32.88;;;23.90;99.90;;;;;;4930928;28;20058;-75
2022/05/10 11:02:57;;;;;;;33.65;31.55;;;24.00;99.90;;;;;;4960024;28;20054;-75
2022/05/10 11:05:34;;;;;;;34.22;31.98;;;24.30;99.90;;;;;;4967272;28;20064;-76
2022/05/10 11:08:28;;;;;;;34.83;32.78;;;24.70;99.90;;;;;;4976295;28;20125;-76
2022/05/10 11:11:14;;;;;;;35.00;32.90;;;24.70;99.90;;;;;;4959833;28;20112;-75
2022/05/10 11:14:01;;;;;;;35.38;33.17;;;24.90;99.90;;;;;;4964817;28;20058;-75
2022/05/10 11:16:58;;;;;;;35.60;33.55;;;25.00;99.90;;;;;;4964017;28;20078;-75
2022/05/10 11:19:55;;;;;;;34.85;32.85;;;24.70;99.90;;;;;;4966793;28;20051;-74
2022/05/10 11:22:27;;;;;;;36.60;34.53;;;24.60;99.90;;;;;;4967005;28;20097;-75
2022/05/10 11:25:15;;;;;;;33.85;31.90;;;24.70;99.70;;;;;;4949741;28;20105;-76
2022/05/10 11:28:09;;;;;;;34.42;32.53;;;24.60;99.90;;;;;;4967608;28;20496;-76
2022/05/10 11:30:39;;;;;;;34.55;32.40;;;24.80;99.80;;;;;;4964874;28;20635;-76
2022/05/10 11:33:31;;;;;;;35.83;33.83;;;25.10;99.90;;;;;;4964656;28;20055;-75
2022/05/10 11:36:32;;;;;;;37.20;35.22;;;25.50;99.30;;;;;;4965149;28;20077;-75
2022/05/10 11:39:31;;;;;;;38.05;36.00;;;25.50;97.70;;;;;;4977583;28;20043;-75
2022/05/10 11:42:32;;;;;;;36.83;34.50;;;25.60;97.90;;;;;;4956263;28;20066;-74
2022/05/10 11:45:21;;;;;;;34.63;32.58;;;25.50;98.70;;;;;;4957589;28;20452;-75
2022/05/10 11:48:15;;;;;;;34.13;32.05;;;25.70;99.30;;;;;;4965512;28;20082;-75
2022/05/10 11:54:16;;;;;;;35.53;33.63;;;25.50;97.60;;;;;;4965474;28;20051;-75
2022/05/10 11:56:45;;;;;;;33.03;31.23;;;25.60;97.60;;;;;;4966501;28;20063;-75
2022/05/10 11:59:23;;;;;;;33.83;31.73;;;25.50;97.20;;;;;;4965409;28;20063;-76
2022/05/10 12:01:51;;;;;;;33.92;31.50;;;25.50;97.40;;;;;;4948677;28;20043;-76
2022/05/10 12:04:41;;;;;;;33.85;31.60;;;25.70;97.80;;;;;;4952140;28;20523;-75
2022/05/10 12:07:42;;;;;;;32.97;30.05;;;25.50;97.70;;;;;;4952749;28;20696;-75
2022/05/10 12:10:35;;;;;;;33.15;31.15;;;25.00;97.50;;;;;;4977570;28;20054;-75
2022/05/10 12:22:08;;;;;;;32.78;30.70;;;25.30;98.10;;;;;;4962467;28;20038;-75
2022/05/10 12:24:44;;;;;;;31.98;29.60;;;25.40;99.30;;;;;;4947268;28;20051;-75
2022/05/10 12:27:10;;;;;;;32.40;30.27;;;25.40;99.20;;;;;;4965776;28;20057;-75
2022/05/10 12:29:40;;;;;;;45.47;32.78;;;25.40;99.10;;;;;;4948540;28;20046;-76
2022/05/10 12:32:09;;;;;;;98.75;41.15;;;25.40;98.90;;;;;;4964100;28;20464;-75
2022/05/10 12:34:57;;;;;;;50.70;34.30;;;25.50;99.20;;;;;;4963332;28;20578;-76
2022/05/10 12:37:31;;;;;;;40.67;33.78;;;25.50;99.30;;;;;;4956759;28;20860;-75
2022/05/10 12:40:09;;;;;;;45.72;35.28;;;25.10;98.80;;;;;;4976035;28;20100;-74
2022/05/10 12:43:14;;;;;;;34.53;32.30;;;24.90;98.50;;;;;;4969516;28;20055;-75
2022/05/10 12:45:55;;;;;;;34.53;32.08;;;24.80;99.50;;;;;;4961031;28;20058;-75
2022/05/10 12:48:39;;;;;;;34.08;31.58;;;24.60;98.40;;;;;;4947105;28;20068;-74
2022/05/10 12:51:27;;;;;;;32.13;30.08;;;24.70;98.60;;;;;;4946634;28;20070;-75
2022/05/10 12:53:59;;;;;;;34.30;32.22;;;24.80;99.90;;;;;;4964137;28;20058;-76
2022/05/10 12:56:45;;;;;;;33.45;31.45;;;24.80;99.70;;;;;;4952702;28;20046;-75
2022/05/10 12:59:32;;;;;;;33.40;31.48;;;25.00;99.90;;;;;;4964360;28;20051;-75
2022/05/10 13:01:59;;;;;;;33.25;31.25;;;25.10;98.70;;;;;;4946520;28;20526;-75
2022/05/10 13:04:31;;;;;;;33.60;31.67;;;25.10;98.80;;;;;;4963690;28;20063;-75
2022/05/10 13:07:27;;;;;;;33.17;31.25;;;25.00;98.50;;;;;;4954019;28;20122;-75
2022/05/10 13:10:08;;;;;;;35.08;33.00;;;25.20;99.10;;;;;;4952814;28;20145;-74
2022/05/10 13:12:40;;;;;;;34.85;32.53;;;25.50;98.20;;;;;;4967134;28;20133;-75
2022/05/10 13:15:13;;;;;;;36.08;33.97;;;25.90;98.50;;;;;;4962806;28;20522;-74
2022/05/10 13:17:49;;;;;;;36.10;33.75;;;26.10;97.90;;;;;;4964051;28;20050;-75
2022/05/10 13:20:21;;;;;;;33.72;31.63;;;25.90;97.90;;;;;;4963062;28;20058;-75
2022/05/10 13:22:49;;;;;;;34.47;32.28;;;25.80;98.10;;;;;;4944442;28;20085;-73
2022/05/10 13:25:35;;;;;;;34.00;31.98;;;25.60;97.20;;;;;;4954195;28;20054;-77
2022/05/10 13:28:18;;;;;;;35.83;33.88;;;25.40;97.30;;;;;;4941944;28;20046;-74